createdAt,value
2023-01-06T00:01:54.427Z,0.80
2023-01-06T00:04:39.627Z,0.93
2023-01-06T00:07:24.717Z,0.73
2023-01-06T00:10:11.637Z,1.00
2023-01-06T00:12:57.095Z,0.77
2023-01-06T00:15:42.260Z,1.20
2023-01-06T00:18:27.661Z,1.03
2023-01-06T00:21:14.418Z,0.80
2023-01-06T00:23:59.697Z,0.87
2023-01-06T00:26:44.894Z,1.00
2023-01-06T00:29:30.287Z,0.83
2023-01-06T00:32:15.758Z,1.10
2023-01-06T00:35:01.572Z,1.00
2023-01-06T00:37:46.848Z,0.90
2023-01-06T00:40:33.296Z,0.90
2023-01-06T00:43:18.661Z,0.90
2023-01-06T00:46:04.174Z,0.93
2023-01-06T00:49:03.916Z,0.97
2023-01-06T00:51:52.204Z,0.80
2023-01-06T00:54:37.738Z,0.90
2023-01-06T00:57:22.919Z,1.00
2023-01-06T01:00:11.655Z,0.90
2023-01-06T01:02:57.265Z,0.90
2023-01-06T01:05:43.375Z,0.93
2023-01-06T01:08:29.218Z,0.90
2023-01-06T01:11:34.939Z,0.90
2023-01-06T01:14:21.007Z,1.00
2023-01-06T01:17:07.111Z,1.00
2023-01-06T01:19:55.503Z,0.93
2023-01-06T01:22:41.003Z,0.90
2023-01-06T01:25:26.276Z,0.83
2023-01-06T01:28:11.656Z,1.00
2023-01-06T01:31:01.077Z,1.00
2023-01-06T01:33:46.381Z,1.00
2023-01-06T01:36:32.337Z,0.90
2023-01-06T01:39:19.904Z,0.87
2023-01-06T01:42:11.462Z,1.13
2023-01-06T01:45:04.051Z,0.90
2023-01-06T01:47:55.762Z,0.70
2023-01-06T01:50:47.201Z,0.90
2023-01-06T01:53:44.034Z,0.73
2023-01-06T01:56:32.087Z,0.80
2023-01-06T01:59:28.533Z,0.90
2023-01-06T02:02:16.643Z,0.73
2023-01-06T02:05:03.133Z,0.60
2023-01-06T02:07:49.946Z,0.70
2023-01-06T02:10:35.267Z,0.70
2023-01-06T02:13:22.882Z,1.00
2023-01-06T02:16:11.510Z,0.70
2023-01-06T02:19:10.555Z,1.00
2023-01-06T02:22:13.187Z,0.77
2023-01-06T02:25:36.268Z,0.53
2023-01-06T02:29:00.020Z,0.85
2023-01-06T02:31:58.845Z,0.90
2023-01-06T02:35:03.006Z,0.70
2023-01-06T02:38:07.352Z,1.00
2023-01-06T02:41:11.516Z,1.00
2023-01-06T02:44:03.582Z,0.80
2023-01-06T02:46:57.088Z,1.00
2023-01-06T02:49:46.344Z,1.20
2023-01-06T02:52:42.928Z,1.17
2023-01-06T02:55:36.863Z,1.10
2023-01-06T02:58:51.790Z,1.00
2023-01-06T03:01:49.317Z,0.80
2023-01-06T03:04:43.167Z,0.83
2023-01-06T03:07:32.862Z,1.00
2023-01-06T03:10:22.207Z,1.00
2023-01-06T03:13:43.045Z,1.10
2023-01-06T03:16:28.606Z,0.90
2023-01-06T03:19:14.660Z,1.10
2023-01-06T03:22:01.987Z,1.43
2023-01-06T03:24:47.537Z,1.20
2023-01-06T03:27:33.643Z,1.10
2023-01-06T03:30:19.632Z,1.50
2023-01-06T03:33:32.657Z,1.27
2023-01-06T03:36:39.111Z,1.35
2023-01-06T03:39:34.108Z,1.00
2023-01-06T03:42:59.301Z,1.30
2023-01-06T03:45:53.936Z,1.20
2023-01-06T03:49:29.699Z,1.20
2023-01-06T03:52:27.817Z,1.10
2023-01-06T03:55:25.207Z,1.37
2023-01-06T03:58:12.385Z,1.27
2023-01-06T04:00:58.506Z,1.20
2023-01-06T04:03:46.870Z,1.30
2023-01-06T04:06:32.621Z,1.30
2023-01-06T04:09:21.898Z,1.40
2023-01-06T04:12:26.281Z,1.30
2023-01-06T04:15:16.175Z,1.10
2023-01-06T04:18:04.461Z,1.20
2023-01-06T04:20:52.656Z,1.20
2023-01-06T04:23:47.994Z,1.50
2023-01-06T04:26:34.030Z,1.70
2023-01-06T04:29:19.753Z,1.50
2023-01-06T04:32:05.520Z,1.57
2023-01-06T04:34:51.518Z,1.40
2023-01-06T04:37:37.626Z,1.30
2023-01-06T04:40:23.101Z,1.50
2023-01-06T04:43:13.372Z,1.50
2023-01-06T04:45:59.455Z,1.83
2023-01-06T04:48:45.142Z,1.63
2023-01-06T04:51:30.506Z,1.80
2023-01-06T04:54:16.376Z,1.70
2023-01-06T04:57:01.809Z,1.80
2023-01-06T04:59:46.937Z,1.63
2023-01-06T05:02:32.339Z,2.10
2023-01-06T05:05:17.609Z,1.70
2023-01-06T05:08:02.904Z,2.10
2023-01-06T05:10:48.172Z,2.03
2023-01-06T05:13:35.218Z,1.80
2023-01-06T05:16:27.486Z,1.63
2023-01-06T05:19:13.281Z,2.17
2023-01-06T05:21:58.709Z,1.73
2023-01-06T05:24:44.268Z,1.60
2023-01-06T05:27:30.076Z,2.00
2023-01-06T05:30:15.385Z,1.80
2023-01-06T05:33:02.024Z,1.63
2023-01-06T05:35:48.336Z,1.70
2023-01-06T05:38:34.393Z,1.80
2023-01-06T05:41:20.413Z,1.70
2023-01-06T05:44:06.158Z,1.70
2023-01-06T05:46:51.979Z,1.50
2023-01-06T05:49:37.675Z,1.70
2023-01-06T05:52:22.953Z,1.40
2023-01-06T05:55:09.002Z,2.00
2023-01-06T05:57:54.461Z,1.37
2023-01-06T06:00:39.919Z,1.80
2023-01-06T06:03:25.405Z,1.73
2023-01-06T06:06:10.765Z,2.57
2023-01-06T06:08:56.030Z,2.13
2023-01-06T06:11:41.207Z,1.53
2023-01-06T06:14:26.829Z,2.00
2023-01-06T06:17:12.358Z,1.57
2023-01-06T06:19:57.636Z,1.77
2023-01-06T06:22:43.198Z,1.90
2023-01-06T06:25:29.525Z,1.60
2023-01-06T06:28:15.069Z,1.80
2023-01-06T06:31:14.079Z,1.90
2023-01-06T06:34:01.808Z,1.70
2023-01-06T06:36:47.353Z,1.83
2023-01-06T06:39:32.557Z,1.50
2023-01-06T06:42:17.705Z,2.00
2023-01-06T06:45:02.944Z,1.80
2023-01-06T06:47:48.230Z,2.07
2023-01-06T06:50:33.658Z,1.67
2023-01-06T06:53:18.902Z,1.93
2023-01-06T06:56:05.667Z,1.80
2023-01-06T06:58:51.115Z,1.80
2023-01-06T07:01:36.431Z,1.60
2023-01-06T07:04:21.614Z,1.90
2023-01-06T07:07:06.770Z,1.83
2023-01-06T07:09:52.194Z,1.77
2023-01-06T07:12:37.345Z,1.73
2023-01-06T07:15:22.749Z,1.63
2023-01-06T07:18:08.024Z,1.60
2023-01-06T07:20:54.080Z,1.73
2023-01-06T07:23:39.414Z,1.83
2023-01-06T07:26:24.642Z,1.50
2023-01-06T07:29:09.932Z,1.53
2023-01-06T07:31:55.103Z,1.77
2023-01-06T07:34:40.457Z,1.80
2023-01-06T07:37:25.731Z,1.70
2023-01-06T07:40:11.635Z,1.77
2023-01-06T07:42:56.981Z,1.60
2023-01-06T07:45:42.112Z,1.77
2023-01-06T07:48:27.531Z,1.90
2023-01-06T07:51:12.779Z,1.40
2023-01-06T07:53:57.990Z,1.60
2023-01-06T07:56:44.160Z,1.60
2023-01-06T07:59:29.543Z,1.60
2023-01-06T08:02:14.813Z,1.50
2023-01-06T08:05:00.473Z,1.63
2023-01-06T08:07:45.773Z,1.60
2023-01-06T08:10:31.128Z,1.70
2023-01-06T08:13:16.914Z,1.70
2023-01-06T08:16:08.389Z,1.47
2023-01-06T08:18:53.922Z,1.40
2023-01-06T08:21:39.098Z,1.87
2023-01-06T08:24:24.409Z,1.70
2023-01-06T08:27:09.668Z,1.70
2023-01-06T08:29:55.480Z,1.60
2023-01-06T08:32:41.058Z,1.60
2023-01-06T08:35:26.906Z,1.50
2023-01-06T08:38:12.508Z,1.50
2023-01-06T08:40:59.680Z,1.53
2023-01-06T08:43:46.310Z,1.60
2023-01-06T08:46:31.915Z,1.40
2023-01-06T08:49:17.318Z,1.50
2023-01-06T08:52:02.672Z,1.60
2023-01-06T08:54:48.041Z,1.43
2023-01-06T08:57:33.991Z,1.57
2023-01-06T09:00:19.625Z,1.40
2023-01-06T09:03:05.328Z,1.40
2023-01-06T09:05:56.582Z,1.50
2023-01-06T09:08:42.231Z,1.47
2023-01-06T09:11:27.786Z,1.47
2023-01-06T09:14:16.344Z,1.60
2023-01-06T09:17:01.945Z,1.70
2023-01-06T09:19:47.376Z,2.07
2023-01-06T09:22:32.556Z,2.07
2023-01-06T09:25:18.374Z,2.37
2023-01-06T09:28:03.758Z,2.33
2023-01-06T09:30:49.279Z,2.13
2023-01-06T09:33:34.956Z,2.13
2023-01-06T09:36:20.643Z,2.30
2023-01-06T09:39:05.945Z,2.40
2023-01-06T09:42:14.193Z,2.20
2023-01-06T09:45:14.067Z,2.90
2023-01-06T09:48:03.980Z,2.33
2023-01-06T09:50:56.959Z,2.40
2023-01-06T09:53:49.215Z,2.80
2023-01-06T09:56:34.710Z,2.30
2023-01-06T09:59:19.844Z,2.83
2023-01-06T10:02:14.617Z,2.80
2023-01-06T10:05:00.256Z,3.23
2023-01-06T10:08:23.778Z,3.00
2023-01-06T10:11:19.514Z,2.47
2023-01-06T10:14:19.017Z,2.63
2023-01-06T10:17:07.355Z,2.87
2023-01-06T10:20:14.539Z,2.47
2023-01-06T10:23:21.797Z,2.80
2023-01-06T10:26:22.041Z,2.60
2023-01-06T10:29:18.481Z,2.50
2023-01-06T10:32:06.403Z,2.40
2023-01-06T10:34:52.243Z,2.30
2023-01-06T10:37:41.909Z,2.33
2023-01-06T10:40:30.506Z,2.47
2023-01-06T10:43:15.993Z,2.27
2023-01-06T10:46:01.259Z,2.27
2023-01-06T10:48:49.312Z,2.07
2023-01-06T10:51:49.027Z,2.07
2023-01-06T10:54:34.507Z,2.10
2023-01-06T10:57:35.857Z,2.07
2023-01-06T11:00:23.845Z,2.10
2023-01-06T11:03:32.476Z,2.40
2023-01-06T11:06:30.273Z,2.07
2023-01-06T11:09:41.500Z,2.17
2023-01-06T11:12:29.811Z,2.10
2023-01-06T11:15:22.467Z,2.00
2023-01-06T11:18:24.870Z,2.10
2023-01-06T11:21:14.403Z,2.10
2023-01-06T11:24:15.941Z,2.00
2023-01-06T11:27:14.355Z,2.03
2023-01-06T11:30:19.877Z,1.90
2023-01-06T11:33:13.955Z,2.00
2023-01-06T11:36:09.338Z,1.83
2023-01-06T11:39:04.158Z,1.77
2023-01-06T11:41:52.720Z,1.90
2023-01-06T11:44:41.647Z,2.03
2023-01-06T11:47:27.693Z,2.10
2023-01-06T11:50:20.054Z,1.70
2023-01-06T11:53:16.767Z,1.97
2023-01-06T11:56:18.648Z,1.90
2023-01-06T11:59:10.739Z,1.73
2023-01-06T12:01:59.464Z,2.00
2023-01-06T12:04:52.143Z,2.20
2023-01-06T12:07:49.931Z,1.67
2023-01-06T12:10:37.768Z,1.77
2023-01-06T12:13:23.856Z,1.60
2023-01-06T12:16:32.652Z,2.13
2023-01-06T12:19:40.278Z,1.60
2023-01-06T12:22:33.825Z,1.90
2023-01-06T12:25:21.383Z,1.70
2023-01-06T12:28:18.420Z,1.70
2023-01-06T12:31:10.046Z,1.80
2023-01-06T12:34:16.396Z,1.53
2023-01-06T12:37:09.205Z,1.77
2023-01-06T12:40:01.187Z,1.45
2023-01-06T12:43:05.113Z,1.60
2023-01-06T12:46:32.623Z,1.73
2023-01-06T12:49:24.312Z,1.50
2023-01-06T12:52:17.875Z,1.70
2023-01-06T12:55:04.274Z,1.40
2023-01-06T12:57:59.092Z,1.67
2023-01-06T13:00:53.690Z,1.50
2023-01-06T13:03:57.125Z,1.37
2023-01-06T13:10:30.937Z,1.30
2023-01-06T13:13:54.999Z,1.60
2023-01-06T13:16:53.419Z,1.70
2023-01-06T13:19:51.187Z,1.33
2023-01-06T13:22:59.822Z,1.73
2023-01-06T13:26:08.157Z,1.43
2023-01-06T13:29:14.775Z,1.50
2023-01-06T13:32:03.237Z,1.83
2023-01-06T13:34:59.340Z,1.40
2023-01-06T13:38:05.998Z,1.73
2023-01-06T13:40:53.359Z,1.13
2023-01-06T13:43:39.802Z,1.50
2023-01-06T13:46:27.250Z,1.47
2023-01-06T13:49:12.530Z,1.37
2023-01-06T13:51:58.159Z,1.33
2023-01-06T13:54:43.381Z,1.40
2023-01-06T13:57:33.575Z,1.43
2023-01-06T14:00:43.166Z,1.57
2023-01-06T14:03:28.618Z,1.57
2023-01-06T14:06:40.788Z,1.83
2023-01-06T14:09:27.369Z,1.73
2023-01-06T14:12:35.187Z,1.70
2023-01-06T14:15:31.755Z,1.90
2023-01-06T14:18:35.178Z,1.57
2023-01-06T14:21:28.384Z,1.77
2023-01-06T14:24:31.407Z,1.57
2023-01-06T14:27:17.067Z,2.00
2023-01-06T14:30:19.351Z,1.60
2023-01-06T14:33:22.355Z,1.80
2023-01-06T14:36:15.795Z,2.03
2023-01-06T14:42:06.512Z,1.67
2023-01-06T14:44:55.612Z,1.77
2023-01-06T14:47:47.636Z,2.10
2023-01-06T14:50:47.124Z,1.50
2023-01-06T14:53:43.051Z,1.80
2023-01-06T14:56:31.151Z,1.90
2023-01-06T14:59:16.752Z,1.33
2023-01-06T15:02:13.897Z,1.70
2023-01-06T15:04:59.899Z,1.63
2023-01-06T15:07:59.011Z,1.40
2023-01-06T15:10:52.667Z,1.30
2023-01-06T15:13:37.935Z,1.67
2023-01-06T15:16:32.705Z,1.50
2023-01-06T15:19:18.077Z,1.40
2023-01-06T15:22:08.394Z,1.60
2023-01-06T15:24:54.863Z,1.50
2023-01-06T15:27:48.260Z,1.80
2023-01-06T15:30:36.771Z,1.47
2023-01-06T15:33:25.453Z,1.50
2023-01-06T15:36:20.791Z,1.57
2023-01-06T15:39:10.325Z,1.53
2023-01-06T15:41:56.966Z,1.53
2023-01-06T15:45:04.346Z,1.30
2023-01-06T15:47:51.355Z,1.57
2023-01-06T15:50:36.881Z,1.40
2023-01-06T15:53:28.162Z,1.67
2023-01-06T15:56:21.016Z,1.53
2023-01-06T15:59:14.119Z,1.80
2023-01-06T16:01:59.938Z,1.40
2023-01-06T16:04:46.270Z,1.10
2023-01-06T16:07:41.232Z,1.30
2023-01-06T16:10:37.737Z,1.60
2023-01-06T16:13:29.489Z,1.50
2023-01-06T16:16:15.001Z,1.80
2023-01-06T16:19:16.255Z,1.63
2023-01-06T16:22:08.186Z,1.60
2023-01-06T16:24:54.169Z,1.57
2023-01-06T16:27:39.481Z,1.37
2023-01-06T16:30:36.388Z,1.37
2023-01-06T16:33:39.413Z,1.50
2023-01-06T16:36:25.355Z,1.27
2023-01-06T16:39:10.588Z,1.30
2023-01-06T16:41:58.912Z,1.30
2023-01-06T16:44:44.225Z,1.40
2023-01-06T16:47:29.516Z,1.17
2023-01-06T16:50:36.029Z,1.20
2023-01-06T16:53:22.943Z,1.50
2023-01-06T16:56:16.566Z,1.40
2023-01-06T16:59:02.385Z,1.80
2023-01-06T17:01:48.815Z,1.30
2023-01-06T17:04:35.802Z,1.00
2023-01-06T17:07:21.612Z,1.57
2023-01-06T17:10:15.406Z,1.27
2023-01-06T17:13:25.423Z,1.20
2023-01-06T17:16:10.877Z,1.30
2023-01-06T17:19:07.150Z,1.27
2023-01-06T17:22:02.851Z,1.20
2023-01-06T17:24:52.722Z,1.37
2023-01-06T17:27:38.917Z,1.37
2023-01-06T17:30:24.212Z,1.10
2023-01-06T17:33:12.103Z,1.40
2023-01-06T17:35:57.672Z,1.13
2023-01-06T17:38:47.520Z,1.07
2023-01-06T17:41:32.843Z,1.00
2023-01-06T17:44:21.951Z,0.93
2023-01-06T17:47:29.843Z,1.20
2023-01-06T17:50:33.863Z,1.10
2023-01-06T17:53:54.330Z,1.30
2023-01-06T17:56:40.183Z,1.40
2023-01-06T17:59:25.572Z,1.00
2023-01-06T18:02:44.364Z,1.20
2023-01-06T18:05:36.063Z,1.10
2023-01-06T18:08:26.487Z,1.00
2023-01-06T18:11:12.254Z,1.00
2023-01-06T18:14:15.538Z,1.00
2023-01-06T18:17:30.400Z,1.02
2023-01-06T18:20:16.234Z,1.10
2023-01-06T18:23:02.285Z,1.40
2023-01-06T18:25:52.736Z,1.10
2023-01-06T18:28:38.181Z,1.17
2023-01-06T18:31:24.062Z,1.20
2023-01-06T18:34:36.059Z,0.90
2023-01-06T18:37:35.639Z,1.30
2023-01-06T18:40:25.002Z,0.90
2023-01-06T18:43:29.738Z,1.20
2023-01-06T18:46:17.649Z,1.30
2023-01-06T18:49:09.632Z,1.20
2023-01-06T18:51:55.382Z,1.33
2023-01-06T18:54:40.723Z,1.00
2023-01-06T18:57:30.842Z,1.10
2023-01-06T19:00:52.678Z,1.07
2023-01-06T19:03:41.637Z,1.30
2023-01-06T19:06:35.810Z,1.23
2023-01-06T19:09:46.419Z,1.50
2023-01-06T19:12:35.988Z,1.40
2023-01-06T19:15:24.722Z,1.03
2023-01-06T19:18:18.311Z,1.20
2023-01-06T19:21:13.434Z,1.13
2023-01-06T19:24:00.556Z,1.10
2023-01-06T19:26:45.954Z,1.03
2023-01-06T19:29:33.424Z,1.13
2023-01-06T19:32:20.429Z,1.20
2023-01-06T19:35:22.709Z,1.00
2023-01-06T19:38:45.324Z,1.13
2023-01-06T19:41:33.632Z,0.90
2023-01-06T19:44:20.826Z,0.83
2023-01-06T19:47:30.232Z,0.87
2023-01-06T19:50:25.477Z,0.93
2023-01-06T19:53:40.751Z,1.10
2023-01-06T19:56:44.533Z,0.70
2023-01-06T20:02:44.320Z,1.10
2023-01-06T20:05:31.921Z,1.00
2023-01-06T20:08:17.424Z,0.90
2023-01-06T20:11:03.199Z,0.93
2023-01-06T20:13:50.144Z,1.00
2023-01-06T20:16:36.000Z,0.97
2023-01-06T20:19:21.730Z,1.20
2023-01-06T20:22:07.099Z,0.90
2023-01-06T20:24:52.454Z,1.03
2023-01-06T20:27:37.726Z,1.10
2023-01-06T20:30:23.141Z,0.90
2023-01-06T20:33:10.020Z,1.00
2023-01-06T20:35:55.463Z,0.90
2023-01-06T20:38:40.796Z,1.20
2023-01-06T20:41:26.083Z,1.00
2023-01-06T20:44:13.211Z,0.90
2023-01-06T20:46:58.511Z,0.90
2023-01-06T20:49:43.811Z,1.00
2023-01-06T20:52:29.213Z,0.90
2023-01-06T20:55:14.836Z,1.00
2023-01-06T20:58:00.639Z,1.00
2023-01-06T21:00:46.288Z,1.10
2023-01-06T21:03:49.851Z,0.90
2023-01-06T21:06:35.813Z,0.90
2023-01-06T21:09:21.214Z,1.07
2023-01-06T21:12:06.652Z,1.20
2023-01-06T21:14:52.404Z,1.10
2023-01-06T21:17:37.815Z,1.00
2023-01-06T21:20:23.345Z,1.00
2023-01-06T21:23:10.050Z,0.83
2023-01-06T21:25:55.519Z,1.00
2023-01-06T21:28:40.781Z,0.90
2023-01-06T21:31:26.006Z,1.00
2023-01-06T21:34:11.176Z,1.00
2023-01-06T21:36:56.631Z,1.00
2023-01-06T21:39:41.861Z,0.90
2023-01-06T21:42:45.573Z,0.93
2023-01-06T21:45:30.850Z,0.90
2023-01-06T21:48:16.122Z,0.80
2023-01-06T21:51:01.632Z,0.80
2023-01-06T21:53:47.195Z,1.10
2023-01-06T21:56:34.880Z,1.00
2023-01-06T21:59:20.701Z,0.90
2023-01-06T22:02:06.635Z,0.70
2023-01-06T22:04:52.612Z,1.10
2023-01-06T22:07:43.209Z,1.00
2023-01-06T22:10:28.813Z,1.00
2023-01-06T22:13:18.427Z,1.10
2023-01-06T22:16:03.785Z,0.93
2023-01-06T22:18:49.039Z,1.13
2023-01-06T22:21:36.053Z,0.90
2023-01-06T22:24:22.419Z,1.00
2023-01-06T22:27:07.755Z,0.93
2023-01-06T22:29:53.149Z,1.00
2023-01-06T22:32:43.348Z,0.80
2023-01-06T22:35:28.928Z,0.90
2023-01-06T22:38:14.569Z,0.93
2023-01-06T22:41:00.169Z,0.90
2023-01-06T22:43:45.564Z,1.20
2023-01-06T22:46:30.892Z,1.00
2023-01-06T22:49:16.063Z,1.00
2023-01-06T22:52:01.335Z,0.93
2023-01-06T22:54:46.620Z,1.00
2023-01-06T22:57:31.976Z,1.10
2023-01-06T23:00:18.732Z,0.90
2023-01-06T23:03:04.141Z,0.90
2023-01-06T23:06:09.731Z,1.00
2023-01-06T23:09:00.586Z,1.00
2023-01-06T23:11:46.351Z,0.83
2023-01-06T23:14:31.852Z,0.90
2023-01-06T23:17:17.197Z,0.60
2023-01-06T23:20:02.780Z,1.00
2023-01-06T23:22:48.295Z,0.90
2023-01-06T23:25:33.626Z,0.90
2023-01-06T23:28:18.752Z,1.20
2023-01-06T23:31:07.476Z,1.00
2023-01-06T23:33:56.231Z,1.00
2023-01-06T23:36:42.166Z,1.00
2023-01-06T23:39:27.445Z,0.90
2023-01-06T23:42:12.788Z,0.70
2023-01-06T23:44:58.010Z,0.80
2023-01-06T23:47:43.366Z,1.00
2023-01-06T23:50:28.471Z,0.80
2023-01-06T23:53:13.719Z,0.70
2023-01-06T23:56:07.849Z,0.70
2023-01-06T23:58:55.826Z,0.80
